createdAt,value
2023-04-08T00:01:02.008Z,4.784851
2023-04-08T00:04:28.641Z,4.845276
2023-04-08T00:07:54.998Z,4.835205
2023-04-08T00:11:21.471Z,4.905701
2023-04-08T00:14:48.052Z,4.915771
2023-04-08T00:18:14.435Z,4.966125
2023-04-08T00:21:40.916Z,4.986267
2023-04-08T00:25:07.527Z,4.986267
2023-04-08T00:28:33.982Z,4.935913
2023-04-08T00:32:00.427Z,4.935913
2023-04-08T00:35:27.067Z,4.885559
2023-04-08T00:38:53.482Z,4.935913
2023-04-08T00:42:20.007Z,4.855347
2023-04-08T00:45:46.593Z,4.885559
2023-04-08T00:49:13.015Z,4.915771
2023-04-08T00:52:39.405Z,4.855347
2023-04-08T00:56:05.650Z,4.885559
2023-04-08T00:59:31.984Z,4.935913
2023-04-08T01:02:58.248Z,4.855347
2023-04-08T01:06:24.140Z,4.804993
2023-04-08T01:09:50.175Z,4.804993
2023-04-08T01:13:16.104Z,4.77478
2023-04-08T01:16:42.083Z,4.77478
2023-04-08T01:20:08.060Z,4.734497
2023-04-08T01:23:33.919Z,4.704285
2023-04-08T01:26:59.827Z,4.77478
2023-04-08T01:30:25.603Z,4.664001
2023-04-08T01:33:51.402Z,4.674072
2023-04-08T01:37:17.168Z,4.593506
2023-04-08T01:40:42.960Z,4.553223
2023-04-08T01:44:08.758Z,4.512939
2023-04-08T01:47:34.536Z,4.502869
2023-04-08T01:51:00.286Z,4.422302
2023-04-08T01:54:26.012Z,4.361877
2023-04-08T01:57:51.793Z,4.261169
2023-04-08T02:01:17.729Z,4.261169
2023-04-08T02:04:43.564Z,4.230957
2023-04-08T02:08:09.150Z,4.27124
2023-04-08T02:11:34.896Z,4.321594
2023-04-08T02:15:00.626Z,4.331665
2023-04-08T02:18:26.350Z,4.412231
2023-04-08T02:21:52.085Z,4.331665
2023-04-08T02:25:17.838Z,4.331665
2023-04-08T02:28:43.636Z,4.301453
2023-04-08T02:32:09.337Z,4.230957
2023-04-08T02:35:35.068Z,4.220886
2023-04-08T02:39:00.702Z,4.200745
2023-04-08T02:42:26.399Z,4.150391
2023-04-08T02:45:52.084Z,4.089966
2023-04-08T02:49:17.683Z,4.14032
2023-04-08T02:52:43.489Z,4.120178
2023-04-08T02:56:09.135Z,4.160461
2023-04-08T02:59:34.763Z,4.160461
2023-04-08T03:03:00.564Z,4.089966
2023-04-08T03:06:26.048Z,4.120178
2023-04-08T03:09:51.692Z,4.14032
2023-04-08T03:13:17.345Z,4.120178
2023-04-08T03:16:43.058Z,4.089966
2023-04-08T03:20:08.616Z,4.120178
2023-04-08T03:23:34.233Z,4.120178
2023-04-08T03:26:59.849Z,4.089966
2023-04-08T03:30:25.464Z,4.079895
2023-04-08T03:33:51.019Z,4.039612
2023-04-08T03:37:16.538Z,4.01947
2023-04-08T03:40:42.078Z,3.908691
2023-04-08T03:44:07.648Z,3.979187
2023-04-08T03:47:33.207Z,3.959045
2023-04-08T03:50:58.710Z,4.120178
2023-04-08T03:54:24.238Z,4.110107
2023-04-08T03:57:49.778Z,4.14032
2023-04-08T04:01:15.368Z,4.150391
2023-04-08T04:04:40.910Z,4.180603
2023-04-08T04:08:06.482Z,4.230957
2023-04-08T04:11:32.186Z,4.27124
2023-04-08T04:14:57.901Z,4.241028
2023-04-08T04:18:23.519Z,4.291382
2023-04-08T04:21:49.096Z,4.291382
2023-04-08T04:25:14.736Z,4.261169
2023-04-08T04:28:40.313Z,4.230957
2023-04-08T04:32:05.858Z,4.27124
2023-04-08T04:35:31.489Z,4.27124
2023-04-08T04:38:56.947Z,4.371948
2023-04-08T04:42:22.500Z,4.331665
2023-04-08T04:45:48.062Z,4.301453
2023-04-08T04:49:13.566Z,4.361877
2023-04-08T04:52:39.086Z,4.422302
2023-04-08T04:56:04.572Z,4.331665
2023-04-08T04:59:30.086Z,4.371948
2023-04-08T05:02:55.767Z,4.452515
2023-04-08T05:06:21.102Z,4.422302
2023-04-08T05:09:46.612Z,4.412231
2023-04-08T05:13:12.130Z,4.422302
2023-04-08T05:16:37.731Z,4.422302
2023-04-08T05:20:03.283Z,4.321594
2023-04-08T05:23:28.817Z,4.241028
2023-04-08T05:26:54.442Z,4.261169
2023-04-08T05:30:19.956Z,4.220886
2023-04-08T05:33:45.568Z,4.230957
2023-04-08T05:37:11.181Z,4.321594
2023-04-08T05:40:36.782Z,4.321594
2023-04-08T05:44:02.413Z,4.341736
2023-04-08T05:47:28.058Z,4.27124
2023-04-08T05:50:53.620Z,4.361877
2023-04-08T05:54:19.211Z,4.361877
2023-04-08T05:57:44.800Z,4.361877
2023-04-08T06:01:10.429Z,4.361877
2023-04-08T06:04:36.154Z,4.402161
2023-04-08T06:08:01.650Z,4.442444
2023-04-08T06:11:27.278Z,4.512939
2023-04-08T06:14:52.816Z,4.553223
2023-04-08T06:18:18.364Z,4.593506
2023-04-08T06:21:43.864Z,4.512939
2023-04-08T06:25:09.411Z,4.583435
2023-04-08T06:28:34.891Z,4.653931
2023-04-08T06:32:00.378Z,4.593506
2023-04-08T06:35:25.711Z,4.553223
2023-04-08T06:38:51.349Z,4.593506
2023-04-08T06:42:16.789Z,4.623718
2023-04-08T06:45:42.407Z,4.583435
2023-04-08T06:49:08.003Z,4.593506
2023-04-08T06:52:33.573Z,4.633789
2023-04-08T06:55:59.177Z,4.724426
2023-04-08T06:59:24.724Z,4.724426
2023-04-08T07:02:51.058Z,4.754639
2023-04-08T07:06:17.221Z,4.734497
2023-04-08T07:09:42.858Z,4.704285
2023-04-08T07:13:08.234Z,4.633789
2023-04-08T07:16:33.718Z,4.603577
2023-04-08T07:19:59.234Z,4.512939
2023-04-08T07:23:24.705Z,4.502869
2023-04-08T07:26:50.298Z,4.553223
2023-04-08T07:30:15.810Z,4.623718
2023-04-08T07:33:41.260Z,4.664001
2023-04-08T07:37:06.644Z,4.704285
2023-04-08T07:40:32.055Z,4.835205
2023-04-08T07:43:57.528Z,4.966125
2023-04-08T07:47:23.227Z,4.966125
2023-04-08T07:51:07.873Z,4.986267
2023-04-08T07:54:14.095Z,4.966125
2023-04-08T07:57:39.537Z,5.036621
2023-04-08T08:01:04.929Z,5.207825
2023-04-08T08:04:30.617Z,5.207825
2023-04-08T08:07:55.902Z,5.177612
2023-04-08T08:11:21.321Z,5.066833
2023-04-08T08:14:46.619Z,4.935913
2023-04-08T08:18:11.998Z,4.915771
2023-04-08T08:21:37.325Z,4.875488
2023-04-08T08:25:02.745Z,4.885559
2023-04-08T08:28:27.952Z,4.815063
2023-04-08T08:31:53.301Z,4.956055
2023-04-08T08:35:18.790Z,5.086975
2023-04-08T08:38:43.984Z,5.127258
2023-04-08T08:42:09.330Z,5.036621
2023-04-08T08:45:34.639Z,5.097046
2023-04-08T08:48:59.916Z,5.238037
2023-04-08T08:52:25.295Z,5.358887
2023-04-08T08:59:15.912Z,5.328674
2023-04-08T09:02:41.378Z,5.238037
2023-04-08T09:06:06.511Z,5.27832
2023-04-08T09:09:31.757Z,5.27832
2023-04-08T09:12:57.008Z,5.308533
2023-04-08T09:16:22.299Z,5.177612
2023-04-08T09:19:47.573Z,5.127258
2023-04-08T09:23:12.943Z,5.117188
2023-04-08T09:26:38.410Z,5.086975
2023-04-08T09:30:03.659Z,5.066833
2023-04-08T09:33:28.993Z,5.117188
2023-04-08T09:36:54.359Z,5.27832
2023-04-08T09:40:19.661Z,5.308533
2023-04-08T09:43:45.022Z,5.39917
2023-04-08T09:47:10.313Z,5.419312
2023-04-08T09:50:35.673Z,5.449524
2023-04-08T09:54:01.084Z,5.429382
2023-04-08T09:57:26.381Z,5.429382
2023-04-08T10:00:51.859Z,5.429382
2023-04-08T10:04:17.204Z,5.610657
2023-04-08T10:07:42.499Z,5.630798
2023-04-08T10:11:07.844Z,5.580444
2023-04-08T10:14:33.370Z,5.65094
2023-04-08T10:17:58.778Z,5.741577
2023-04-08T10:21:24.183Z,5.741577
2023-04-08T10:24:49.545Z,5.852356
2023-04-08T10:28:14.880Z,5.761719
2023-04-08T10:31:40.304Z,5.681152
2023-04-08T10:35:05.631Z,5.681152
2023-04-08T10:38:31.012Z,5.560303
2023-04-08T10:41:56.409Z,5.610657
2023-04-08T10:45:21.799Z,5.580444
2023-04-08T10:48:47.216Z,5.449524
2023-04-08T10:52:12.647Z,5.560303
2023-04-08T10:55:38.082Z,5.610657
2023-04-08T10:59:03.552Z,5.509949
2023-04-08T11:02:29.057Z,5.308533
2023-04-08T11:05:54.445Z,5.27832
2023-04-08T11:09:19.934Z,5.389099
2023-04-08T11:12:45.994Z,5.26825
2023-04-08T11:16:17.999Z,5.217896
2023-04-08T11:19:36.650Z,5.197754
2023-04-08T11:23:02.138Z,5.177612
2023-04-08T11:26:27.703Z,5.177612
2023-04-08T11:29:53.117Z,5.167542
2023-04-08T11:33:18.586Z,5.02655
2023-04-08T11:36:44.082Z,5.127258
2023-04-08T11:40:09.540Z,5.217896
2023-04-08T11:43:35.152Z,5.328674
2023-04-08T11:47:00.622Z,5.459595
2023-04-08T11:50:26.120Z,5.479736
2023-04-08T11:53:53.384Z,5.419312
2023-04-08T11:57:17.230Z,5.39917
2023-04-08T12:00:42.873Z,5.479736
2023-04-08T12:04:08.350Z,5.640869
2023-04-08T12:07:33.684Z,5.711365
2023-04-08T12:11:06.370Z,5.761719
2023-04-08T12:14:25.778Z,5.812073
2023-04-08T12:17:50.185Z,5.822144
2023-04-08T12:21:16.083Z,5.892639
2023-04-08T12:24:41.403Z,5.892639
2023-04-08T12:28:06.719Z,5.892639
2023-04-08T12:31:32.123Z,5.852356
2023-04-08T12:34:57.399Z,5.852356
2023-04-08T12:38:22.682Z,5.892639
2023-04-08T12:41:47.993Z,5.822144
2023-04-08T12:45:13.337Z,5.711365
2023-04-08T12:48:38.713Z,5.751648
2023-04-08T12:52:04.066Z,5.862427
2023-04-08T12:55:29.401Z,5.912781
2023-04-08T12:58:54.686Z,5.932922
2023-04-08T13:02:20.036Z,5.973206
2023-04-08T13:05:45.307Z,6.013489
2023-04-08T13:09:10.782Z,6.03363
2023-04-08T13:12:36.017Z,5.973206
2023-04-08T13:16:01.388Z,5.822144
2023-04-08T13:19:26.742Z,5.852356
2023-04-08T13:22:52.132Z,5.993347
2023-04-08T13:26:17.572Z,6.174622
2023-04-08T13:29:42.977Z,6.224976
2023-04-08T13:33:08.407Z,6.335754
2023-04-08T13:36:33.820Z,6.325684
2023-04-08T13:39:59.284Z,6.456604
2023-04-08T13:43:24.698Z,6.547241
2023-04-08T13:46:50.088Z,6.607666
2023-04-08T13:50:15.468Z,6.617737
2023-04-08T13:53:40.842Z,6.65802
2023-04-08T13:57:06.190Z,6.456604
2023-04-08T14:00:31.612Z,6.40625
2023-04-08T14:03:56.959Z,6.355896
2023-04-08T14:07:22.330Z,6.335754
2023-04-08T14:10:47.718Z,6.194763
2023-04-08T14:14:13.209Z,6.194763
2023-04-08T14:17:38.708Z,6.124268
2023-04-08T14:21:04.025Z,6.15448
2023-04-08T14:24:29.439Z,6.144409
2023-04-08T14:27:58.714Z,6.174622
2023-04-08T14:31:20.330Z,6.224976
2023-04-08T14:34:45.699Z,6.27533
2023-04-08T14:38:11.258Z,6.325684
2023-04-08T14:41:36.834Z,6.305542
2023-04-08T14:45:02.450Z,6.365967
2023-04-08T14:48:28.024Z,6.245117
2023-04-08T14:51:53.660Z,6.184692
2023-04-08T14:55:19.290Z,6.245117
2023-04-08T14:58:45.005Z,6.224976
2023-04-08T15:02:10.763Z,6.325684
2023-04-08T15:05:36.838Z,6.436462
2023-04-08T15:41:37.996Z,6.688232
2023-04-08T15:45:03.298Z,6.587524
2023-04-08T15:48:28.678Z,6.486816
2023-04-08T15:51:53.953Z,6.436462
2023-04-08T15:55:19.220Z,6.325684
2023-04-08T15:58:44.514Z,6.355896
2023-04-08T16:02:09.864Z,6.355896
2023-04-08T16:05:35.098Z,6.476746
2023-04-08T16:09:00.421Z,6.486816
2023-04-08T16:12:25.916Z,6.476746
2023-04-08T16:15:51.323Z,6.517029
2023-04-08T16:19:16.688Z,6.53717
2023-04-08T16:22:41.863Z,6.65802
2023-04-08T16:26:07.152Z,6.607666
2023-04-08T16:29:32.447Z,6.65802
2023-04-08T16:32:57.781Z,6.557312
2023-04-08T16:36:23.045Z,6.577454
2023-04-08T16:39:48.302Z,6.65802
2023-04-08T16:43:14.239Z,6.698303
2023-04-08T16:46:38.923Z,6.738586
2023-04-08T16:50:04.256Z,6.698303
2023-04-08T16:53:29.579Z,6.728516
2023-04-08T16:56:55.640Z,6.728516
2023-04-08T17:00:26.437Z,6.668091
2023-04-08T17:03:54.826Z,6.607666
2023-04-08T17:07:21.484Z,6.577454
2023-04-08T17:10:48.331Z,6.587524
2023-04-08T17:14:15.133Z,6.607666
2023-04-08T17:17:41.349Z,6.577454
2023-04-08T17:21:06.984Z,6.557312
2023-04-08T17:24:32.452Z,6.587524
2023-04-08T17:27:57.848Z,6.65802
2023-04-08T17:31:23.260Z,6.688232
2023-04-08T17:34:48.671Z,6.688232
2023-04-08T17:38:14.134Z,6.65802
2023-04-08T17:41:41.058Z,6.65802
2023-04-08T17:45:04.948Z,6.668091
2023-04-08T17:48:30.390Z,6.607666
2023-04-08T17:51:55.920Z,6.637878
2023-04-08T17:55:21.378Z,6.637878
2023-04-08T17:58:46.829Z,6.688232
2023-04-08T18:02:13.078Z,6.688232
2023-04-08T18:05:39.263Z,6.728516
2023-04-08T18:09:05.597Z,6.728516
2023-04-08T18:12:41.882Z,6.738586
2023-04-08T18:16:07.209Z,6.688232
2023-04-08T18:19:32.499Z,6.698303
2023-04-08T18:22:57.748Z,6.668091
2023-04-08T18:26:22.994Z,6.607666
2023-04-08T18:29:48.274Z,6.587524
2023-04-08T18:33:13.518Z,6.65802
2023-04-08T18:36:38.824Z,6.577454
2023-04-08T18:40:04.051Z,6.637878
2023-04-08T18:43:29.301Z,6.607666
2023-04-08T18:46:54.866Z,6.607666
2023-04-08T18:50:20.146Z,6.637878
2023-04-08T18:53:45.910Z,6.617737
2023-04-08T18:57:11.137Z,6.637878
2023-04-08T19:00:36.332Z,6.376038
2023-04-08T19:04:01.694Z,6.224976
2023-04-08T19:07:26.779Z,6.174622
2023-04-08T19:10:51.957Z,6.245117
2023-04-08T19:14:17.223Z,6.214905
2023-04-08T19:17:42.449Z,6.265259
2023-04-08T19:21:07.644Z,6.124268
2023-04-08T19:24:32.927Z,5.942993
2023-04-08T19:27:58.115Z,5.832214
2023-04-08T19:31:23.374Z,5.932922
2023-04-08T19:34:48.587Z,5.993347
2023-04-08T19:38:13.843Z,5.993347
2023-04-08T19:41:39.105Z,5.963135
2023-04-08T19:45:04.300Z,5.963135
2023-04-08T19:48:29.517Z,5.973206
2023-04-08T19:51:54.725Z,5.932922
2023-04-08T19:55:19.962Z,5.963135
2023-04-08T19:58:45.179Z,6.03363
2023-04-08T20:02:10.440Z,5.932922
2023-04-08T20:05:35.728Z,5.862427
2023-04-08T20:09:01.084Z,5.822144
2023-04-08T20:12:26.412Z,5.711365
2023-04-08T20:15:51.805Z,5.640869
2023-04-08T20:19:17.115Z,5.600586
2023-04-08T20:22:42.419Z,5.449524
2023-04-08T20:26:07.721Z,5.39917
2023-04-08T20:29:33.045Z,5.389099
2023-04-08T20:32:58.355Z,5.27832
2023-04-08T20:36:23.598Z,5.328674
2023-04-08T20:39:48.895Z,5.358887
2023-04-08T20:43:14.165Z,5.358887
2023-04-08T20:46:39.426Z,5.389099
2023-04-08T20:50:04.715Z,5.389099
2023-04-08T20:53:29.972Z,5.489807
2023-04-08T20:56:55.220Z,5.65094
2023-04-08T21:00:20.460Z,5.761719
2023-04-08T21:03:45.778Z,5.852356
2023-04-08T21:07:11.036Z,5.912781
2023-04-08T21:10:36.252Z,5.963135
2023-04-08T21:14:01.603Z,5.993347
2023-04-08T21:17:26.856Z,6.013489
2023-04-08T21:20:52.084Z,6.003418
2023-04-08T21:24:17.366Z,6.063843
2023-04-08T21:27:42.578Z,6.094055
2023-04-08T21:31:07.830Z,6.063843
2023-04-08T21:34:33.096Z,6.063843
2023-04-08T21:37:58.403Z,6.083984
2023-04-08T21:41:23.696Z,6.114197
2023-04-08T21:44:48.905Z,6.114197
2023-04-08T21:48:14.162Z,6.124268
2023-04-08T21:51:39.431Z,6.043701
2023-04-08T21:55:04.687Z,6.043701
2023-04-08T21:58:29.978Z,6.114197
2023-04-08T22:01:55.254Z,6.114197
2023-04-08T22:05:20.491Z,6.144409
2023-04-08T22:08:45.734Z,6.15448
2023-04-08T22:12:11.014Z,6.114197
2023-04-08T22:15:36.342Z,6.144409
2023-04-08T22:19:01.574Z,6.114197
2023-04-08T22:22:26.844Z,6.114197
2023-04-08T22:25:52.081Z,6.083984
2023-04-08T22:29:17.334Z,6.043701
2023-04-08T22:32:42.646Z,6.094055
2023-04-08T22:36:07.864Z,6.063843
2023-04-08T22:39:33.052Z,6.013489
2023-04-08T22:42:58.287Z,6.063843
2023-04-08T22:46:23.571Z,6.063843
2023-04-08T22:49:48.835Z,6.03363
2023-04-08T22:53:14.053Z,6.013489
2023-04-08T22:56:39.277Z,6.003418
2023-04-08T23:00:04.550Z,5.963135
2023-04-08T23:03:29.828Z,5.993347
2023-04-08T23:06:55.094Z,5.963135
2023-04-08T23:10:20.334Z,5.942993
2023-04-08T23:13:45.621Z,5.993347
2023-04-08T23:17:10.836Z,5.973206
2023-04-08T23:20:36.102Z,5.993347
2023-04-08T23:24:01.385Z,5.942993
2023-04-08T23:27:26.569Z,5.963135
2023-04-08T23:30:51.840Z,5.963135
2023-04-08T23:34:17.071Z,5.912781
2023-04-08T23:37:42.276Z,5.892639
2023-04-08T23:41:07.546Z,5.852356
2023-04-08T23:44:32.766Z,5.65094
2023-04-08T23:47:58.000Z,5.681152
2023-04-08T23:51:23.263Z,5.711365
2023-04-08T23:54:48.510Z,5.721436
2023-04-08T23:58:13.790Z,5.459595
